Etusivu
METAR-TAF:

METAR-TAF

Lentoasemat :

Roseburg Regional Airport (Marion E. Carl Memorial Field)

Roseburg, Oregon, Yhdysvallat

Leveyspiiri: 43-14-02N, Pituuspiiri: 123-21-22W, korkeus merenpinnasta: 160 m

Tämänhetkinen sää

Tämä raportti tehtiin 48 minuuttia sitten, kello 09.53 UTC
tyyntä
Lämpötila 17°C
Kosteus 55%
Ilmanpaine 1018 hPa
Näkyvyys: 16.1 km
selkeää

METAR: KRBG 130953Z AUTO 00000KT 10SM CLR 17/08 A3006 RMK AO2 SLP176 T01670083

Aika: 03:41 (10:41 UTC)

Sääennuste

Tämä raportti tehtiin 5 tuntia ja 13 minuuttia sitten, kello 05.28 UTC
Ennuste voimassa 13. päivästä klo 06 UTC - 14. päivään klo 06 UTC
Tuuli 3 kn eri suunnista
Näkyvyys: 10 km
selkeää
From 13. päivästä klo 2100 UTC
Tuuli 12 kn pohjoisesta puuskistuen 18 kn:hen
Näkyvyys: 10 km
selkeää
From 14. päivästä klo 0400 UTC
Tuuli 5 kn pohjoisen/luoteesta
Näkyvyys: 10 km
selkeää

TAF: KRBG 130528Z 1306/1406 VRB03KT P6SM SKC FM132100 36012G18KT P6SM SKC FM140400 34005KT P6SM SKC

Säähavainnot ja -ennusteet yli 4000 lentoasemalta (METAR- ja TAF-raportit).

Käytössä olevat sääasemat on merkitty karttaan keltaisilla ja punaisilla pisteillä.

Aseta hiiri pisteen päälle nähdäksesi sääaseman nimen.

Klikkaa sitten nähdäksesi säähavainnot ja -ennusteet.

Kartan vaihtaminen: klikkaa mustalla rastilla varustettuja vihreitä pisteitä, niin voit zoomata sisään; viivalla varustettua vihreää pistettä, niin voit zoomata ulos tai vihreitä nuolia, niin pääset viereisille kartoille.


METAR-TAF: